Wikieup, Arizona
Current Conditions -  °F | °C
As of 12:55 AM on Thursday 23 Oct 2014 (Local Time) from KHII Reporting Station
Few Clouds Few Clouds  
Wind Chill: 73°   Ceiling: Unl
Heat Index: 73°   Visibility: 10mi
Dew Point: 39°   Wind: 5mph
Humidity: 29%   Direction: 80°E
Pressure: 29.95"   Gusts: NA
Location:  34.7°N, 113.61°W
Report Text: KHII 230755Z AUTO 08004KT 10SM FEW050 23/04 A2995 RMK AO2
Loading
Personal Weather Stations






























Interactive Weather Map
Tropical Storm Tracking
New forecast layout! Learn more

10-Day Weather Forecast

Advertisements
Track Severe Weather on mobile